sensor_id;sensor_type;location;lat;lon;timestamp;pressure;altitude;pressure_sealevel;temperature;humidity
39243;BME280;29823;47.404;8.566;2022-09-09T00:01:23;96224.16;;;15.35;100.00
39243;BME280;29823;47.404;8.566;2022-09-09T00:04:02;96223.34;;;15.45;100.00
39243;BME280;29823;47.404;8.566;2022-09-09T00:06:31;96224.16;;;15.35;100.00
39243;BME280;29823;47.404;8.566;2022-09-09T00:09:07;96227.91;;;15.24;100.00
39243;BME280;29823;47.404;8.566;2022-09-09T00:11:43;96223.59;;;15.28;100.00
39243;BME280;29823;47.404;8.566;2022-09-09T00:14:20;96221.47;;;15.40;100.00
39243;BME280;29823;47.404;8.566;2022-09-09T00:16:54;96218.78;;;15.35;100.00
39243;BME280;29823;47.404;8.566;2022-09-09T00:19:24;96221.97;;;15.27;100.00
39243;BME280;29823;47.404;8.566;2022-09-09T00:22:08;96220.09;;;15.28;100.00
39243;BME280;29823;47.404;8.566;2022-09-09T00:24:44;96220.34;;;15.31;100.00
39243;BME280;29823;47.404;8.566;2022-09-09T00:27:21;96218.53;;;15.37;100.00
39243;BME280;29823;47.404;8.566;2022-09-09T00:29:55;96217.69;;;15.41;100.00
39243;BME280;29823;47.404;8.566;2022-09-09T00:32:28;96217.19;;;15.44;100.00
39243;BME280;29823;47.404;8.566;2022-09-09T00:34:58;96218.22;;;15.43;100.00
39243;BME280;29823;47.404;8.566;2022-09-09T00:37:28;96221.47;;;15.40;100.00
39243;BME280;29823;47.404;8.566;2022-09-09T00:40:01;96211.78;;;15.44;100.00
39243;BME280;29823;47.404;8.566;2022-09-09T00:42:37;96209.91;;;15.50;100.00
39243;BME280;29823;47.404;8.566;2022-09-09T00:45:19;96208.81;;;15.41;100.00
39243;BME280;29823;47.404;8.566;2022-09-09T00:47:53;96210.16;;;15.33;100.00
39243;BME280;29823;47.404;8.566;2022-09-09T00:50:37;96205.28;;;15.30;100.00
39243;BME280;29823;47.404;8.566;2022-09-09T00:53:22;96212.88;;;15.33;100.00
39243;BME280;29823;47.404;8.566;2022-09-09T00:55:58;96209.84;;;15.30;100.00
39243;BME280;29823;47.404;8.566;2022-09-09T00:58:29;96218.47;;;15.32;100.00
39243;BME280;29823;47.404;8.566;2022-09-09T01:01:01;96215.78;;;15.22;100.00
39243;BME280;29823;47.404;8.566;2022-09-09T01:03:37;96224.13;;;15.25;100.00
39243;BME280;29823;47.404;8.566;2022-09-09T01:06:14;96224.44;;;15.39;100.00
39243;BME280;29823;47.404;8.566;2022-09-09T01:08:56;96225.25;;;15.54;100.00
39243;BME280;29823;47.404;8.566;2022-09-09T01:11:29;96217.19;;;15.44;100.00
39243;BME280;29823;47.404;8.566;2022-09-09T01:14:11;96222.28;;;15.51;100.00
39243;BME280;29823;47.404;8.566;2022-09-09T01:16:42;96221.47;;;15.40;100.00
39243;BME280;29823;47.404;8.566;2022-09-09T01:19:17;96225.72;;;15.26;100.00
39243;BME280;29823;47.404;8.566;2022-09-09T01:21:51;96219.28;;;15.32;100.00
39243;BME280;29823;47.404;8.566;2022-09-09T01:24:26;96217.38;;;15.23;100.00
39243;BME280;29823;47.404;8.566;2022-09-09T01:26:59;96223.03;;;15.31;100.00
39243;BME280;29823;47.404;8.566;2022-09-09T01:29:28;96233.78;;;15.11;100.00
39243;BME280;29823;47.404;8.566;2022-09-09T01:31:58;96236.47;;;15.16;100.00
39243;BME280;29823;47.404;8.566;2022-09-09T01:34:29;96245.63;;;15.05;100.00
39243;BME280;29823;47.404;8.566;2022-09-09T01:37:02;96234.31;;;15.03;100.00
39243;BME280;29823;47.404;8.566;2022-09-09T01:39:32;96239.41;;;14.95;100.00
39243;BME280;29823;47.404;8.566;2022-09-09T01:42:03;96235.13;;;14.99;100.00
39243;BME280;29823;47.404;8.566;2022-09-09T01:44:32;96230.25;;;14.96;100.00
39243;BME280;29823;47.404;8.566;2022-09-09T01:47:02;96226.72;;;14.80;100.00
39243;BME280;29823;47.404;8.566;2022-09-09T01:49:29;96223.19;;;14.80;100.00
39243;BME280;29823;47.404;8.566;2022-09-09T01:51:59;96233.66;;;14.71;100.00
39243;BME280;29823;47.404;8.566;2022-09-09T01:54:30;96239.00;;;14.61;100.00
39243;BME280;29823;47.404;8.566;2022-09-09T01:57:06;96241.47;;;14.73;100.00
39243;BME280;29823;47.404;8.566;2022-09-09T02:00:00;96244.19;;;14.78;100.00
39243;BME280;29823;47.404;8.566;2022-09-09T02:02:32;96249.78;;;14.66;100.00
39243;BME280;29823;47.404;8.566;2022-09-09T02:05:10;96252.47;;;14.66;100.00
39243;BME280;29823;47.404;8.566;2022-09-09T02:07:47;96257.38;;;14.74;100.00
39243;BME280;29823;47.404;8.566;2022-09-09T02:10:19;96244.50;;;14.91;100.00
39243;BME280;29823;47.404;8.566;2022-09-09T02:12:53;96255.25;;;14.81;100.00
39243;BME280;29823;47.404;8.566;2022-09-09T02:15:27;96261.13;;;14.78;100.00
39243;BME280;29823;47.404;8.566;2022-09-09T02:17:58;96251.75;;;14.91;100.00
39243;BME280;29823;47.404;8.566;2022-09-09T02:20:27;96258.22;;;14.90;100.00
39243;BME280;29823;47.404;8.566;2022-09-09T02:23:01;96262.78;;;14.89;100.00
39243;BME280;29823;47.404;8.566;2022-09-09T02:25:29;96263.91;;;14.93;100.00
39243;BME280;29823;47.404;8.566;2022-09-09T02:27:58;96259.03;;;14.95;100.00
39243;BME280;29823;47.404;8.566;2022-09-09T02:30:28;96258.31;;;15.15;100.00
39243;BME280;29823;47.404;8.566;2022-09-09T02:32:58;96265.59;;;15.19;100.00
39243;BME280;29823;47.404;8.566;2022-09-09T02:35:29;96262.38;;;15.17;100.00
39243;BME280;29823;47.404;8.566;2022-09-09T02:38:00;96271.47;;;15.11;100.00
39243;BME280;29823;47.404;8.566;2022-09-09T02:40:28;96272.03;;;15.08;100.00
39243;BME280;29823;47.404;8.566;2022-09-09T02:42:58;96261.25;;;15.08;100.00
39243;BME280;29823;47.404;8.566;2022-09-09T02:45:31;96258.03;;;15.16;100.00
39243;BME280;29823;47.404;8.566;2022-09-09T02:48:10;96269.88;;;15.15;100.00
39243;BME280;29823;47.404;8.566;2022-09-09T02:50:43;96266.69;;;15.23;100.00
39243;BME280;29823;47.404;8.566;2022-09-09T02:53:16;96272.59;;;15.20;100.00
39243;BME280;29823;47.404;8.566;2022-09-09T02:55:47;96278.25;;;15.29;100.00
39243;BME280;29823;47.404;8.566;2022-09-09T02:58:18;96287.22;;;15.34;100.00
39243;BME280;29823;47.404;8.566;2022-09-09T03:00:47;96281.28;;;15.42;100.00
39243;BME280;29823;47.404;8.566;2022-09-09T03:03:16;96274.56;;;15.50;100.00
39243;BME280;29823;47.404;8.566;2022-09-09T03:05:44;96278.84;;;15.46;100.00
39243;BME280;29823;47.404;8.566;2022-09-09T03:08:13;96282.38;;;15.41;100.00
39243;BME280;29823;47.404;8.566;2022-09-09T03:10:40;96280.50;;;15.57;100.00
39243;BME280;29823;47.404;8.566;2022-09-09T03:13:08;96284.25;;;15.46;100.00
39243;BME280;29823;47.404;8.566;2022-09-09T03:15:38;96273.22;;;15.52;100.00
39243;BME280;29823;47.404;8.566;2022-09-09T03:18:06;96272.16;;;15.58;100.00
39243;BME280;29823;47.404;8.566;2022-09-09T03:20:34;96272.41;;;15.52;100.00
39243;BME280;29823;47.404;8.566;2022-09-09T03:23:01;96276.97;;;15.41;100.00
39243;BME280;29823;47.404;8.566;2022-09-09T03:25:29;96276.91;;;15.31;100.00
39243;BME280;29823;47.404;8.566;2022-09-09T03:27:58;96280.19;;;15.43;100.00
39243;BME280;29823;47.404;8.566;2022-09-09T03:30:27;96278.59;;;15.52;100.00
39243;BME280;29823;47.404;8.566;2022-09-09T03:32:56;96282.41;;;15.56;100.00
39243;BME280;29823;47.404;8.566;2022-09-09T03:35:24;96285.34;;;15.60;100.00
39243;BME280;29823;47.404;8.566;2022-09-09T03:37:52;96275.91;;;15.47;100.00
39243;BME280;29823;47.404;8.566;2022-09-09T03:40:22;96268.91;;;15.46;100.00
39243;BME280;29823;47.404;8.566;2022-09-09T03:42:49;96291.53;;;15.40;100.00
39243;BME280;29823;47.404;8.566;2022-09-09T03:45:17;96280.19;;;15.43;100.00
39243;BME280;29823;47.404;8.566;2022-09-09T03:47:45;96285.88;;;15.42;100.00
39243;BME280;29823;47.404;8.566;2022-09-09T03:50:14;96283.91;;;15.32;100.00
39243;BME280;29823;47.404;8.566;2022-09-09T03:52:42;96291.19;;;15.27;100.00
39243;BME280;29823;47.404;8.566;2022-09-09T03:55:10;96282.34;;;15.36;100.00
39243;BME280;29823;47.404;8.566;2022-09-09T03:57:37;96286.66;;;15.37;100.00
39243;BME280;29823;47.404;8.566;2022-09-09T04:00:07;96282.09;;;15.33;100.00
39243;BME280;29823;47.404;8.566;2022-09-09T04:02:35;96282.56;;;15.25;100.00
39243;BME280;29823;47.404;8.566;2022-09-09T04:05:03;96274.22;;;15.26;100.00
39243;BME280;29823;47.404;8.566;2022-09-09T04:07:34;96275.81;;;15.22;100.00
39243;BME280;29823;47.404;8.566;2022-09-09T04:10:01;96266.63;;;15.08;100.00
39243;BME280;29823;47.404;8.566;2022-09-09T04:12:29;96263.09;;;14.98;100.00
39243;BME280;29823;47.404;8.566;2022-09-09T04:14:57;96265.25;;;14.96;100.00
39243;BME280;29823;47.404;8.566;2022-09-09T04:17:25;96267.94;;;14.96;100.00
39243;BME280;29823;47.404;8.566;2022-09-09T04:19:52;96267.44;;;14.99;100.00
39243;BME280;29823;47.404;8.566;2022-09-09T04:22:20;96271.91;;;14.78;100.00
39243;BME280;29823;47.404;8.566;2022-09-09T04:24:50;96277.31;;;14.83;100.00
39243;BME280;29823;47.404;8.566;2022-09-09T04:27:17;96286.44;;;14.77;100.00
39243;BME280;29823;47.404;8.566;2022-09-09T04:29:45;96292.81;;;14.61;100.00
39243;BME280;29823;47.404;8.566;2022-09-09T04:32:13;96289.94;;;14.78;100.00
39243;BME280;29823;47.404;8.566;2022-09-09T04:34:41;96286.44;;;14.77;100.00
39243;BME280;29823;47.404;8.566;2022-09-09T04:37:09;96280.72;;;14.64;100.00
39243;BME280;29823;47.404;8.566;2022-09-09T04:39:36;96275.41;;;14.79;100.00
39243;BME280;29823;47.404;8.566;2022-09-09T04:42:06;96281.34;;;14.86;100.00
39243;BME280;29823;47.404;8.566;2022-09-09T04:44:33;96287.53;;;14.81;100.00
39243;BME280;29823;47.404;8.566;2022-09-09T04:47:02;96284.31;;;14.79;100.00
39243;BME280;29823;47.404;8.566;2022-09-09T04:49:30;96269.16;;;14.68;100.00
39243;BME280;29823;47.404;8.566;2022-09-09T04:51:58;96274.28;;;14.70;100.00
39243;BME280;29823;47.404;8.566;2022-09-09T04:54:26;96282.03;;;14.56;100.00
39243;BME280;29823;47.404;8.566;2022-09-09T04:56:54;96278.53;;;14.56;100.00
39243;BME280;29823;47.404;8.566;2022-09-09T04:59:23;96281.00;;;14.67;100.00
39243;BME280;29823;47.404;8.566;2022-09-09T05:01:51;96284.72;;;14.56;100.00
39243;BME280;29823;47.404;8.566;2022-09-09T05:04:21;96280.25;;;14.72;100.00
39243;BME280;29823;47.404;8.566;2022-09-09T05:06:49;96276.69;;;14.66;100.00
39243;BME280;29823;47.404;8.566;2022-09-09T05:09:17;96282.38;;;14.70;100.00
39243;BME280;29823;47.404;8.566;2022-09-09T05:11:44;96282.59;;;14.58;100.00
39243;BME280;29823;47.404;8.566;2022-09-09T05:14:12;96282.34;;;14.65;100.00
39243;BME280;29823;47.404;8.566;2022-09-09T05:16:43;96277.78;;;14.65;100.00
39243;BME280;29823;47.404;8.566;2022-09-09T05:19:11;96286.97;;;14.74;100.00
39243;BME280;29823;47.404;8.566;2022-09-09T05:21:39;96281.78;;;14.58;100.00
39243;BME280;29823;47.404;8.566;2022-09-09T05:24:07;96260.19;;;14.48;100.00
39243;BME280;29823;47.404;8.566;2022-09-09T05:26:35;96277.81;;;14.70;100.00
39243;BME280;29823;47.404;8.566;2022-09-09T05:29:03;96284.81;;;14.76;100.00
39243;BME280;29823;47.404;8.566;2022-09-09T05:31:31;96293.44;;;14.78;100.00
39243;BME280;29823;47.404;8.566;2022-09-09T05:34:01;96282.94;;;14.82;100.00
39243;BME280;29823;47.404;8.566;2022-09-09T05:36:28;96285.66;;;14.87;100.00
39243;BME280;29823;47.404;8.566;2022-09-09T05:38:56;96286.66;;;14.71;100.00
39243;BME280;29823;47.404;8.566;2022-09-09T05:41:24;96292.84;;;14.66;100.00
39243;BME280;29823;47.404;8.566;2022-09-09T05:43:52;96300.69;;;14.73;100.00
39243;BME280;29823;47.404;8.566;2022-09-09T05:46:21;96302.34;;;14.84;100.00
39243;BME280;29823;47.404;8.566;2022-09-09T05:48:50;96303.16;;;14.84;100.00
39243;BME280;29823;47.404;8.566;2022-09-09T05:51:21;96302.38;;;14.89;100.00
39243;BME280;29823;47.404;8.566;2022-09-09T05:53:50;96310.19;;;14.90;100.00
39243;BME280;29823;47.404;8.566;2022-09-09T05:56:19;96300.53;;;14.99;100.00
39243;BME280;29823;47.404;8.566;2022-09-09T05:58:49;96303.69;;;14.81;100.00
39243;BME280;29823;47.404;8.566;2022-09-09T06:01:18;96308.63;;;15.04;100.00
39243;BME280;29823;47.404;8.566;2022-09-09T06:03:48;96311.84;;;14.96;100.00
39243;BME280;29823;47.404;8.566;2022-09-09T06:06:17;96315.09;;;15.08;100.00
39243;BME280;29823;47.404;8.566;2022-09-09T06:08:50;96310.25;;;15.05;100.00
39243;BME280;29823;47.404;8.566;2022-09-09T06:11:20;96317.81;;;15.13;100.00
39243;BME280;29823;47.404;8.566;2022-09-09T06:13:49;96315.69;;;15.25;100.00
39243;BME280;29823;47.404;8.566;2022-09-09T06:16:18;96307.09;;;15.28;100.00
39243;BME280;29823;47.404;8.566;2022-09-09T06:18:46;96305.00;;;15.35;100.00
39243;BME280;29823;47.404;8.566;2022-09-09T06:21:17;96300.97;;;15.43;100.00
39243;BME280;29823;47.404;8.566;2022-09-09T06:23:45;96297.97;;;15.34;100.00
39243;BME280;29823;47.404;8.566;2022-09-09T06:26:17;96299.91;;;15.54;100.00
39243;BME280;29823;47.404;8.566;2022-09-09T06:28:45;96293.72;;;15.63;100.00
39243;BME280;29823;47.404;8.566;2022-09-09T06:31:15;96304.75;;;15.67;100.00
39243;BME280;29823;47.404;8.566;2022-09-09T06:33:44;96296.13;;;15.60;100.00
39243;BME280;29823;47.404;8.566;2022-09-09T06:36:13;96295.91;;;15.71;100.00
39243;BME280;29823;47.404;8.566;2022-09-09T06:38:42;96295.91;;;15.76;100.00
39243;BME280;29823;47.404;8.566;2022-09-09T06:41:10;96297.78;;;15.81;100.00
39243;BME280;29823;47.404;8.566;2022-09-09T06:43:40;96303.44;;;15.99;100.00
39243;BME280;29823;47.404;8.566;2022-09-09T06:46:11;96288.63;;;15.87;100.00
39243;BME280;29823;47.404;8.566;2022-09-09T06:48:39;96285.38;;;15.95;100.00
39243;BME280;29823;47.404;8.566;2022-09-09T06:51:09;96293.19;;;16.01;100.00
39243;BME280;29823;47.404;8.566;2022-09-09T06:53:40;96292.94;;;16.08;100.00
39243;BME280;29823;47.404;8.566;2022-09-09T06:56:19;96293.69;;;16.28;100.00
39243;BME280;29823;47.404;8.566;2022-09-09T06:58:50;96299.06;;;16.73;100.00
39243;BME280;29823;47.404;8.566;2022-09-09T07:01:19;96302.72;;;17.02;100.00
39243;BME280;29823;47.404;8.566;2022-09-09T07:03:49;96300.00;;;17.02;100.00
39243;BME280;29823;47.404;8.566;2022-09-09T07:06:19;96294.63;;;17.02;100.00
39243;BME280;29823;47.404;8.566;2022-09-09T07:08:50;96305.16;;;16.99;100.00
39243;BME280;29823;47.404;8.566;2022-09-09T07:11:23;96297.06;;;16.99;100.00
39243;BME280;29823;47.404;8.566;2022-09-09T07:13:54;96300.47;;;17.19;100.00
39243;BME280;29823;47.404;8.566;2022-09-09T07:16:23;96297.53;;;17.11;100.00
39243;BME280;29823;47.404;8.566;2022-09-09T07:18:51;96292.44;;;17.04;100.00
39243;BME280;29823;47.404;8.566;2022-09-09T07:21:25;96289.13;;;17.71;100.00
39243;BME280;29823;47.404;8.566;2022-09-09T07:23:53;96301.50;;;17.33;100.00
39243;BME280;29823;47.404;8.566;2022-09-09T07:26:23;96297.63;;;16.91;100.00
39243;BME280;29823;47.404;8.566;2022-09-09T07:28:53;96307.03;;;17.03;100.00
39243;BME280;29823;47.404;8.566;2022-09-09T07:31:24;96305.34;;;18.09;100.00
39243;BME280;29823;47.404;8.566;2022-09-09T07:33:53;96311.06;;;18.88;100.00
39243;BME280;29823;47.404;8.566;2022-09-09T07:36:22;96296.94;;;19.15;100.00
39243;BME280;29823;47.404;8.566;2022-09-09T07:38:57;96310.19;;;19.58;100.00
39243;BME280;29823;47.404;8.566;2022-09-09T07:41:26;96306.09;;;20.48;100.00
39243;BME280;29823;47.404;8.566;2022-09-09T07:43:56;96315.38;;;20.93;100.00
39243;BME280;29823;47.404;8.566;2022-09-09T07:46:25;96310.84;;;21.29;100.00
39243;BME280;29823;47.404;8.566;2022-09-09T07:48:55;96314.69;;;21.63;100.00
39243;BME280;29823;47.404;8.566;2022-09-09T07:51:25;96310.38;;;21.62;100.00
39243;BME280;29823;47.404;8.566;2022-09-09T07:53:55;96322.09;;;21.49;100.00
39243;BME280;29823;47.404;8.566;2022-09-09T07:56:24;96313.97;;;20.95;100.00
39243;BME280;29823;47.404;8.566;2022-09-09T07:58:55;96307.78;;;21.30;100.00
39243;BME280;29823;47.404;8.566;2022-09-09T08:01:25;96311.94;;;21.90;100.00
39243;BME280;29823;47.404;8.566;2022-09-09T08:03:55;96314.72;;;22.56;100.00
39243;BME280;29823;47.404;8.566;2022-09-09T08:06:26;96316.19;;;22.62;100.00
39243;BME280;29823;47.404;8.566;2022-09-09T08:08:54;96309.03;;;23.44;100.00
39243;BME280;29823;47.404;8.566;2022-09-09T08:11:23;96315.44;;;23.31;100.00
39243;BME280;29823;47.404;8.566;2022-09-09T08:13:51;96308.84;;;22.93;100.00
39243;BME280;29823;47.404;8.566;2022-09-09T08:16:26;96298.59;;;23.46;100.00
39243;BME280;29823;47.404;8.566;2022-09-09T08:18:54;96311.50;;;23.63;100.00
39243;BME280;29823;47.404;8.566;2022-09-09T08:21:24;96305.88;;;23.59;100.00
39243;BME280;29823;47.404;8.566;2022-09-09T08:23:54;96311.66;;;22.36;100.00
39243;BME280;29823;47.404;8.566;2022-09-09T08:26:25;96320.59;;;23.11;100.00
39243;BME280;29823;47.404;8.566;2022-09-09T08:28:55;96326.22;;;22.09;100.00
39243;BME280;29823;47.404;8.566;2022-09-09T08:31:28;96326.13;;;21.52;100.00
39243;BME280;29823;47.404;8.566;2022-09-09T08:33:57;96327.09;;;22.40;100.00
39243;BME280;29823;47.404;8.566;2022-09-09T08:36:27;96319.06;;;22.57;94.70
39243;BME280;29823;47.404;8.566;2022-09-09T08:38:57;96325.19;;;23.88;100.00
39243;BME280;29823;47.404;8.566;2022-09-09T08:41:48;96326.81;;;24.57;87.40
39243;BME280;29823;47.404;8.566;2022-09-09T08:44:25;96324.41;;;23.01;100.00
39243;BME280;29823;47.404;8.566;2022-09-09T08:47:05;96319.88;;;22.88;95.94
39243;BME280;29823;47.404;8.566;2022-09-09T08:50:01;96325.41;;;21.73;100.00
39243;BME280;29823;47.404;8.566;2022-09-09T08:52:37;96322.81;;;21.14;100.00
39243;BME280;29823;47.404;8.566;2022-09-09T08:55:18;96322.75;;;21.82;100.00
39243;BME280;29823;47.404;8.566;2022-09-09T08:57:49;96326.63;;;20.54;100.00
39243;BME280;29823;47.404;8.566;2022-09-09T09:00:19;96335.97;;;20.48;100.00
39243;BME280;29823;47.404;8.566;2022-09-09T09:02:54;96330.53;;;19.79;100.00
39243;BME280;29823;47.404;8.566;2022-09-09T09:05:36;96328.34;;;20.96;100.00
39243;BME280;29823;47.404;8.566;2022-09-09T09:08:10;96323.44;;;21.11;100.00
39243;BME280;29823;47.404;8.566;2022-09-09T09:10:46;96327.47;;;21.00;100.00
39243;BME280;29823;47.404;8.566;2022-09-09T09:13:17;96328.50;;;20.72;100.00
39243;BME280;29823;47.404;8.566;2022-09-09T09:15:52;96325.63;;;20.18;100.00
39243;BME280;29823;47.404;8.566;2022-09-09T09:18:22;96333.16;;;19.84;100.00
39243;BME280;29823;47.404;8.566;2022-09-09T09:20:57;96327.09;;;19.74;100.00
39243;BME280;29823;47.404;8.566;2022-09-09T09:23:33;96329.84;;;20.43;100.00
39243;BME280;29823;47.404;8.566;2022-09-09T09:26:07;96324.16;;;20.39;100.00
39243;BME280;29823;47.404;8.566;2022-09-09T09:28:37;96327.31;;;20.14;100.00
39243;BME280;29823;47.404;8.566;2022-09-09T09:31:09;96331.78;;;19.68;100.00
39243;BME280;29823;47.404;8.566;2022-09-09T09:33:45;96326.47;;;19.40;100.00
39243;BME280;29823;47.404;8.566;2022-09-09T09:36:15;96334.28;;;19.23;100.00
39243;BME280;29823;47.404;8.566;2022-09-09T09:38:54;96324.78;;;19.44;100.00
39243;BME280;29823;47.404;8.566;2022-09-09T09:41:43;96330.59;;;19.74;100.00
39243;BME280;29823;47.404;8.566;2022-09-09T09:44:22;96331.16;;;21.58;100.00
39243;BME280;29823;47.404;8.566;2022-09-09T09:46:51;96329.31;;;22.38;100.00
39243;BME280;29823;47.404;8.566;2022-09-09T09:49:20;96336.94;;;21.16;100.00
39243;BME280;29823;47.404;8.566;2022-09-09T09:51:49;96327.94;;;21.02;100.00
39243;BME280;29823;47.404;8.566;2022-09-09T09:54:24;96334.81;;;20.68;100.00
39243;BME280;29823;47.404;8.566;2022-09-09T09:56:54;96327.19;;;20.70;100.00
39243;BME280;29823;47.404;8.566;2022-09-09T09:59:33;96335.53;;;20.73;100.00
39243;BME280;29823;47.404;8.566;2022-09-09T10:02:16;96335.09;;;22.59;86.64
39243;BME280;29823;47.404;8.566;2022-09-09T10:04:46;96320.84;;;21.82;91.53
39243;BME280;29823;47.404;8.566;2022-09-09T10:07:18;96316.88;;;21.39;99.18
39243;BME280;29823;47.404;8.566;2022-09-09T10:09:50;96329.75;;;21.20;100.00
39243;BME280;29823;47.404;8.566;2022-09-09T10:12:28;96325.53;;;21.14;100.00
39243;BME280;29823;47.404;8.566;2022-09-09T10:15:02;96329.56;;;21.17;100.00
39243;BME280;29823;47.404;8.566;2022-09-09T10:17:38;96319.09;;;21.37;100.00
39243;BME280;29823;47.404;8.566;2022-09-09T10:20:27;96317.28;;;21.19;100.00
39243;BME280;29823;47.404;8.566;2022-09-09T10:23:04;96328.78;;;21.16;100.00
39243;BME280;29823;47.404;8.566;2022-09-09T10:25:49;96330.03;;;21.59;100.00
39243;BME280;29823;47.404;8.566;2022-09-09T10:28:33;96333.72;;;20.82;100.00
39243;BME280;29823;47.404;8.566;2022-09-09T10:31:16;96336.66;;;20.40;100.00
39243;BME280;29823;47.404;8.566;2022-09-09T10:33:50;96337.19;;;19.68;100.00
39243;BME280;29823;47.404;8.566;2022-09-09T10:36:22;96333.81;;;19.39;100.00
39243;BME280;29823;47.404;8.566;2022-09-09T10:38:54;96339.63;;;20.89;95.03
39243;BME280;29823;47.404;8.566;2022-09-09T10:41:37;96337.88;;;22.23;81.53
39243;BME280;29823;47.404;8.566;2022-09-09T10:44:17;96336.88;;;22.41;75.75
39243;BME280;29823;47.404;8.566;2022-09-09T10:46:59;96332.94;;;24.37;67.29
39243;BME280;29823;47.404;8.566;2022-09-09T10:49:52;96332.19;;;25.00;64.17
39243;BME280;29823;47.404;8.566;2022-09-09T10:52:32;96323.97;;;25.75;61.33
39243;BME280;29823;47.404;8.566;2022-09-09T10:55:10;96325.84;;;27.42;55.61
39243;BME280;29823;47.404;8.566;2022-09-09T10:57:44;96317.91;;;28.12;51.65
39243;BME280;29823;47.404;8.566;2022-09-09T11:00:17;96314.19;;;28.44;50.70
39243;BME280;29823;47.404;8.566;2022-09-09T11:02:50;96313.75;;;28.85;49.37
39243;BME280;29823;47.404;8.566;2022-09-09T11:05:20;96315.38;;;29.29;46.62
39243;BME280;29823;47.404;8.566;2022-09-09T11:07:54;96308.31;;;29.01;48.61
39243;BME280;29823;47.404;8.566;2022-09-09T11:10:27;96311.09;;;29.47;43.75
39243;BME280;29823;47.404;8.566;2022-09-09T11:13:01;96302.56;;;28.94;46.71
39243;BME280;29823;47.404;8.566;2022-09-09T11:15:36;96304.06;;;29.50;46.98
39243;BME280;29823;47.404;8.566;2022-09-09T11:18:12;96294.16;;;27.20;51.37
39243;BME280;29823;47.404;8.566;2022-09-09T11:20:42;96306.56;;;24.58;58.51
39243;BME280;29823;47.404;8.566;2022-09-09T11:23:13;96321.72;;;23.49;71.41
39243;BME280;29823;47.404;8.566;2022-09-09T11:25:48;96307.97;;;25.56;63.09
39243;BME280;29823;47.404;8.566;2022-09-09T11:28:32;96299.38;;;28.49;52.02
39243;BME280;29823;47.404;8.566;2022-09-09T11:31:17;96291.44;;;28.59;49.80
39243;BME280;29823;47.404;8.566;2022-09-09T11:34:00;96288.28;;;29.97;47.29
39243;BME280;29823;47.404;8.566;2022-09-09T11:36:58;96278.78;;;29.79;47.69
39243;BME280;29823;47.404;8.566;2022-09-09T11:39:54;96277.81;;;30.78;42.86
39243;BME280;29823;47.404;8.566;2022-09-09T11:42:28;96282.22;;;27.88;47.44
39243;BME280;29823;47.404;8.566;2022-09-09T11:44:56;96282.78;;;25.92;52.25
39243;BME280;29823;47.404;8.566;2022-09-09T11:47:26;96274.59;;;27.34;52.33
39243;BME280;29823;47.404;8.566;2022-09-09T11:50:08;96274.59;;;28.92;48.44
39243;BME280;29823;47.404;8.566;2022-09-09T11:52:37;96269.13;;;29.07;46.23
39243;BME280;29823;47.404;8.566;2022-09-09T11:55:19;96263.63;;;28.64;46.50
39243;BME280;29823;47.404;8.566;2022-09-09T11:57:57;96275.63;;;25.79;50.08
39243;BME280;29823;47.404;8.566;2022-09-09T12:00:34;96269.00;;;25.59;56.65
39243;BME280;29823;47.404;8.566;2022-09-09T12:03:04;96274.56;;;25.92;53.05
39243;BME280;29823;47.404;8.566;2022-09-09T12:05:37;96260.75;;;27.30;50.58
39243;BME280;29823;47.404;8.566;2022-09-09T12:08:10;96258.59;;;28.11;47.28
39243;BME280;29823;47.404;8.566;2022-09-09T12:10:53;96254.78;;;28.16;46.20
39243;BME280;29823;47.404;8.566;2022-09-09T12:13:23;96262.03;;;29.37;43.61
39243;BME280;29823;47.404;8.566;2022-09-09T12:15:53;96252.22;;;30.62;40.17
39243;BME280;29823;47.404;8.566;2022-09-09T12:18:23;96253.03;;;27.72;47.07
39243;BME280;29823;47.404;8.566;2022-09-09T12:20:57;96246.59;;;26.39;47.22
39243;BME280;29823;47.404;8.566;2022-09-09T12:23:36;96251.88;;;25.91;51.29
39243;BME280;29823;47.404;8.566;2022-09-09T12:26:31;96235.38;;;25.21;52.33
39243;BME280;29823;47.404;8.566;2022-09-09T12:29:10;96243.59;;;23.95;51.61
39243;BME280;29823;47.404;8.566;2022-09-09T12:31:45;96195.81;;;24.27;52.36
39243;BME280;29823;47.404;8.566;2022-09-09T12:34:17;96239.59;;;26.62;47.35
39243;BME280;29823;47.404;8.566;2022-09-09T12:36:50;96221.34;;;26.78;47.21
39243;BME280;29823;47.404;8.566;2022-09-09T12:39:27;96220.19;;;28.42;43.18
39243;BME280;29823;47.404;8.566;2022-09-09T12:41:58;96218.03;;;30.10;38.84
39243;BME280;29823;47.404;8.566;2022-09-09T12:44:26;96215.81;;;30.15;41.72
39243;BME280;29823;47.404;8.566;2022-09-09T12:46:56;96212.47;;;30.25;38.82
39243;BME280;29823;47.404;8.566;2022-09-09T12:49:32;96214.13;;;29.42;40.56
39243;BME280;29823;47.404;8.566;2022-09-09T12:52:04;96208.31;;;28.97;39.06
39243;BME280;29823;47.404;8.566;2022-09-09T12:54:34;96204.59;;;27.91;41.88
39243;BME280;29823;47.404;8.566;2022-09-09T12:57:05;96196.91;;;26.97;40.27
39243;BME280;29823;47.404;8.566;2022-09-09T12:59:37;96200.81;;;25.08;41.84
39243;BME280;29823;47.404;8.566;2022-09-09T13:02:16;96203.97;;;24.98;45.21
39243;BME280;29823;47.404;8.566;2022-09-09T13:04:45;96199.28;;;24.53;49.95
39243;BME280;29823;47.404;8.566;2022-09-09T13:07:14;96203.50;;;25.25;51.21
39243;BME280;29823;47.404;8.566;2022-09-09T13:09:43;96207.97;;;24.92;52.78
39243;BME280;29823;47.404;8.566;2022-09-09T13:12:16;96202.66;;;24.58;53.75
39243;BME280;29823;47.404;8.566;2022-09-09T13:14:48;96184.41;;;24.79;53.58
39243;BME280;29823;47.404;8.566;2022-09-09T13:17:20;96189.22;;;25.40;53.25
39243;BME280;29823;47.404;8.566;2022-09-09T13:19:50;96183.38;;;25.21;52.37